sensor_id;sensor_type;location;lat;lon;timestamp;temperature;humidity
63383;DHT22;49512;48.744;9.176;2022-07-01T00:00:50;15.10;99.30
63383;DHT22;49512;48.744;9.176;2022-07-01T00:03:16;15.20;98.70
63383;DHT22;49512;48.744;9.176;2022-07-01T00:05:42;15.10;98.70
63383;DHT22;49512;48.744;9.176;2022-07-01T00:08:07;15.00;97.00
63383;DHT22;49512;48.744;9.176;2022-07-01T00:10:33;15.00;96.60
63383;DHT22;49512;48.744;9.176;2022-07-01T00:12:58;15.00;98.00
63383;DHT22;49512;48.744;9.176;2022-07-01T00:15:24;14.90;98.60
63383;DHT22;49512;48.744;9.176;2022-07-01T00:17:49;15.00;97.40
63383;DHT22;49512;48.744;9.176;2022-07-01T00:20:15;15.00;97.00
63383;DHT22;49512;48.744;9.176;2022-07-01T00:22:40;15.00;98.30
63383;DHT22;49512;48.744;9.176;2022-07-01T00:25:07;14.80;98.20
63383;DHT22;49512;48.744;9.176;2022-07-01T00:27:33;14.80;95.80
63383;DHT22;49512;48.744;9.176;2022-07-01T00:30:01;14.70;96.90
63383;DHT22;49512;48.744;9.176;2022-07-01T00:32:27;14.50;97.90
63383;DHT22;49512;48.744;9.176;2022-07-01T00:34:52;14.50;98.20
63383;DHT22;49512;48.744;9.176;2022-07-01T00:37:18;14.60;97.60
63383;DHT22;49512;48.744;9.176;2022-07-01T00:39:44;14.50;98.40
63383;DHT22;49512;48.744;9.176;2022-07-01T00:42:09;14.60;97.80
63383;DHT22;49512;48.744;9.176;2022-07-01T00:44:35;14.50;99.30
63383;DHT22;49512;48.744;9.176;2022-07-01T00:47:01;14.50;98.00
63383;DHT22;49512;48.744;9.176;2022-07-01T00:49:27;14.50;97.50
63383;DHT22;49512;48.744;9.176;2022-07-01T00:51:53;14.50;98.20
63383;DHT22;49512;48.744;9.176;2022-07-01T00:54:19;14.50;98.10
63383;DHT22;49512;48.744;9.176;2022-07-01T00:56:46;14.50;97.40
63383;DHT22;49512;48.744;9.176;2022-07-01T00:59:11;14.50;98.00
63383;DHT22;49512;48.744;9.176;2022-07-01T01:01:37;14.50;98.40
63383;DHT22;49512;48.744;9.176;2022-07-01T01:04:03;14.50;98.40
63383;DHT22;49512;48.744;9.176;2022-07-01T01:06:28;14.60;98.30
63383;DHT22;49512;48.744;9.176;2022-07-01T01:08:54;14.60;98.40
63383;DHT22;49512;48.744;9.176;2022-07-01T01:11:20;14.60;97.40
63383;DHT22;49512;48.744;9.176;2022-07-01T01:13:45;14.60;97.40
63383;DHT22;49512;48.744;9.176;2022-07-01T01:16:20;14.50;97.80
63383;DHT22;49512;48.744;9.176;2022-07-01T01:18:46;14.50;97.90
63383;DHT22;49512;48.744;9.176;2022-07-01T01:21:11;14.50;98.10
63383;DHT22;49512;48.744;9.176;2022-07-01T01:23:37;14.60;98.90
63383;DHT22;49512;48.744;9.176;2022-07-01T01:26:02;14.50;97.10
63383;DHT22;49512;48.744;9.176;2022-07-01T01:28:28;14.50;97.50
63383;DHT22;49512;48.744;9.176;2022-07-01T01:30:53;14.40;97.50
63383;DHT22;49512;48.744;9.176;2022-07-01T01:33:19;14.40;97.10
63383;DHT22;49512;48.744;9.176;2022-07-01T01:35:44;14.50;99.90
63383;DHT22;49512;48.744;9.176;2022-07-01T01:38:10;14.50;98.60
63383;DHT22;49512;48.744;9.176;2022-07-01T01:40:36;14.50;98.70
63383;DHT22;49512;48.744;9.176;2022-07-01T01:43:01;14.50;98.50
63383;DHT22;49512;48.744;9.176;2022-07-01T01:45:27;14.50;98.40
63383;DHT22;49512;48.744;9.176;2022-07-01T01:47:53;14.50;98.30
63383;DHT22;49512;48.744;9.176;2022-07-01T01:50:19;14.70;96.50
63383;DHT22;49512;48.744;9.176;2022-07-01T01:52:45;14.80;97.90
63383;DHT22;49512;48.744;9.176;2022-07-01T01:55:11;14.60;99.90
63383;DHT22;49512;48.744;9.176;2022-07-01T01:57:39;14.60;96.40
63383;DHT22;49512;48.744;9.176;2022-07-01T02:00:05;14.50;96.60
63383;DHT22;49512;48.744;9.176;2022-07-01T02:02:33;14.10;98.00
63383;DHT22;49512;48.744;9.176;2022-07-01T02:05:02;14.20;98.90
63383;DHT22;49512;48.744;9.176;2022-07-01T02:07:28;14.50;98.40
63383;DHT22;49512;48.744;9.176;2022-07-01T02:09:53;14.30;98.40
63383;DHT22;49512;48.744;9.176;2022-07-01T02:12:19;14.30;98.40
63383;DHT22;49512;48.744;9.176;2022-07-01T02:14:44;14.20;99.60
63383;DHT22;49512;48.744;9.176;2022-07-01T02:17:10;14.30;99.10
63383;DHT22;49512;48.744;9.176;2022-07-01T02:19:35;14.10;98.50
63383;DHT22;49512;48.744;9.176;2022-07-01T02:22:01;14.20;99.30
63383;DHT22;49512;48.744;9.176;2022-07-01T02:24:26;14.30;99.20
63383;DHT22;49512;48.744;9.176;2022-07-01T02:26:52;14.30;98.90
63383;DHT22;49512;48.744;9.176;2022-07-01T02:29:17;14.20;99.10
63383;DHT22;49512;48.744;9.176;2022-07-01T02:31:43;14.00;98.70
63383;DHT22;49512;48.744;9.176;2022-07-01T02:34:08;13.90;99.90
63383;DHT22;49512;48.744;9.176;2022-07-01T02:36:34;14.10;99.80
63383;DHT22;49512;48.744;9.176;2022-07-01T02:38:59;13.90;99.90
63383;DHT22;49512;48.744;9.176;2022-07-01T02:41:25;13.90;99.90
63383;DHT22;49512;48.744;9.176;2022-07-01T02:43:50;13.80;99.90
63383;DHT22;49512;48.744;9.176;2022-07-01T02:46:19;13.80;99.90
63383;DHT22;49512;48.744;9.176;2022-07-01T02:48:44;14.20;99.30
63383;DHT22;49512;48.744;9.176;2022-07-01T02:51:10;14.10;99.30
63383;DHT22;49512;48.744;9.176;2022-07-01T02:53:35;14.00;99.30
63383;DHT22;49512;48.744;9.176;2022-07-01T02:56:03;13.80;99.90
63383;DHT22;49512;48.744;9.176;2022-07-01T02:58:29;14.10;99.90
63383;DHT22;49512;48.744;9.176;2022-07-01T03:00:54;13.90;99.90
63383;DHT22;49512;48.744;9.176;2022-07-01T03:03:20;14.10;99.90
63383;DHT22;49512;48.744;9.176;2022-07-01T03:05:46;13.90;99.90
63383;DHT22;49512;48.744;9.176;2022-07-01T03:08:12;13.80;99.90
63383;DHT22;49512;48.744;9.176;2022-07-01T03:10:38;14.00;99.90
63383;DHT22;49512;48.744;9.176;2022-07-01T03:13:03;13.80;99.90
63383;DHT22;49512;48.744;9.176;2022-07-01T03:15:29;13.90;99.90
63383;DHT22;49512;48.744;9.176;2022-07-01T03:17:54;14.00;99.70
63383;DHT22;49512;48.744;9.176;2022-07-01T03:20:20;14.20;99.90
63383;DHT22;49512;48.744;9.176;2022-07-01T03:22:45;14.20;99.20
63383;DHT22;49512;48.744;9.176;2022-07-01T03:25:11;14.10;99.50
63383;DHT22;49512;48.744;9.176;2022-07-01T03:27:40;14.30;98.80
63383;DHT22;49512;48.744;9.176;2022-07-01T03:30:11;14.10;98.70
63383;DHT22;49512;48.744;9.176;2022-07-01T03:32:36;14.00;99.40
63383;DHT22;49512;48.744;9.176;2022-07-01T03:35:02;13.90;98.70
63383;DHT22;49512;48.744;9.176;2022-07-01T03:37:48;13.80;99.30
63383;DHT22;49512;48.744;9.176;2022-07-01T03:40:13;13.90;99.80
63383;DHT22;49512;48.744;9.176;2022-07-01T03:42:39;14.00;99.90
63383;DHT22;49512;48.744;9.176;2022-07-01T03:45:05;14.00;99.90
63383;DHT22;49512;48.744;9.176;2022-07-01T03:47:31;14.00;98.80
63383;DHT22;49512;48.744;9.176;2022-07-01T03:49:56;14.20;99.90
63383;DHT22;49512;48.744;9.176;2022-07-01T03:52:22;14.30;98.40
63383;DHT22;49512;48.744;9.176;2022-07-01T03:54:47;14.10;97.80
63383;DHT22;49512;48.744;9.176;2022-07-01T03:57:12;14.00;99.00
63383;DHT22;49512;48.744;9.176;2022-07-01T03:59:39;14.00;96.90
63383;DHT22;49512;48.744;9.176;2022-07-01T04:02:04;13.90;98.90
63383;DHT22;49512;48.744;9.176;2022-07-01T04:04:30;13.90;99.10
63383;DHT22;49512;48.744;9.176;2022-07-01T04:06:57;14.10;98.20
63383;DHT22;49512;48.744;9.176;2022-07-01T04:09:23;14.00;99.10
63383;DHT22;49512;48.744;9.176;2022-07-01T04:11:51;14.20;99.90
63383;DHT22;49512;48.744;9.176;2022-07-01T04:14:17;14.20;98.30
63383;DHT22;49512;48.744;9.176;2022-07-01T04:16:43;13.70;99.90
63383;DHT22;49512;48.744;9.176;2022-07-01T04:19:13;13.80;99.90
63383;DHT22;49512;48.744;9.176;2022-07-01T04:21:39;13.70;99.90
63383;DHT22;49512;48.744;9.176;2022-07-01T04:24:42;13.70;99.90
63383;DHT22;49512;48.744;9.176;2022-07-01T04:27:09;13.70;99.90
63383;DHT22;49512;48.744;9.176;2022-07-01T04:29:34;13.80;99.90
63383;DHT22;49512;48.744;9.176;2022-07-01T04:32:00;13.80;99.90
63383;DHT22;49512;48.744;9.176;2022-07-01T04:34:25;13.80;99.90
63383;DHT22;49512;48.744;9.176;2022-07-01T04:36:51;13.70;99.90
63383;DHT22;49512;48.744;9.176;2022-07-01T04:39:17;13.60;99.90
63383;DHT22;49512;48.744;9.176;2022-07-01T04:41:42;13.70;99.90
63383;DHT22;49512;48.744;9.176;2022-07-01T04:44:30;13.60;99.90
63383;DHT22;49512;48.744;9.176;2022-07-01T04:46:56;13.60;99.90
63383;DHT22;49512;48.744;9.176;2022-07-01T04:49:21;13.60;99.90
63383;DHT22;49512;48.744;9.176;2022-07-01T04:51:47;13.60;99.90
63383;DHT22;49512;48.744;9.176;2022-07-01T04:54:12;13.60;99.90
63383;DHT22;49512;48.744;9.176;2022-07-01T04:56:38;13.60;99.90
63383;DHT22;49512;48.744;9.176;2022-07-01T04:59:04;13.50;99.90
63383;DHT22;49512;48.744;9.176;2022-07-01T05:01:29;13.50;99.90
63383;DHT22;49512;48.744;9.176;2022-07-01T05:03:55;13.70;99.90
63383;DHT22;49512;48.744;9.176;2022-07-01T05:06:21;13.60;99.90
63383;DHT22;49512;48.744;9.176;2022-07-01T05:08:47;13.70;99.90
63383;DHT22;49512;48.744;9.176;2022-07-01T05:11:12;13.60;99.90
63383;DHT22;49512;48.744;9.176;2022-07-01T05:13:38;13.60;99.90
63383;DHT22;49512;48.744;9.176;2022-07-01T05:16:03;13.70;99.90
63383;DHT22;49512;48.744;9.176;2022-07-01T05:18:29;13.70;99.90
63383;DHT22;49512;48.744;9.176;2022-07-01T05:21:13;13.60;99.90
63383;DHT22;49512;48.744;9.176;2022-07-01T05:23:58;13.60;99.90
63383;DHT22;49512;48.744;9.176;2022-07-01T05:26:23;13.70;99.90
63383;DHT22;49512;48.744;9.176;2022-07-01T05:28:51;13.80;99.90
63383;DHT22;49512;48.744;9.176;2022-07-01T05:31:17;13.80;99.90
63383;DHT22;49512;48.744;9.176;2022-07-01T05:33:43;13.70;99.90
63383;DHT22;49512;48.744;9.176;2022-07-01T05:36:08;13.80;99.90
63383;DHT22;49512;48.744;9.176;2022-07-01T05:38:34;13.70;99.90
63383;DHT22;49512;48.744;9.176;2022-07-01T05:41:00;13.70;99.90
63383;DHT22;49512;48.744;9.176;2022-07-01T05:43:25;13.60;99.90
63383;DHT22;49512;48.744;9.176;2022-07-01T05:45:51;13.50;99.90
63383;DHT22;49512;48.744;9.176;2022-07-01T05:48:16;13.50;99.90
63383;DHT22;49512;48.744;9.176;2022-07-01T05:50:42;13.60;99.90
63383;DHT22;49512;48.744;9.176;2022-07-01T05:53:08;13.60;99.90
63383;DHT22;49512;48.744;9.176;2022-07-01T05:55:34;13.60;99.90
63383;DHT22;49512;48.744;9.176;2022-07-01T05:57:59;13.70;99.90
63383;DHT22;49512;48.744;9.176;2022-07-01T06:00:26;13.80;99.90
63383;DHT22;49512;48.744;9.176;2022-07-01T06:02:52;13.60;99.90
63383;DHT22;49512;48.744;9.176;2022-07-01T06:05:17;13.80;99.90
63383;DHT22;49512;48.744;9.176;2022-07-01T06:07:43;13.80;99.90
63383;DHT22;49512;48.744;9.176;2022-07-01T06:10:09;13.90;99.90
63383;DHT22;49512;48.744;9.176;2022-07-01T06:12:38;13.70;99.90
63383;DHT22;49512;48.744;9.176;2022-07-01T06:15:04;13.80;99.90
63383;DHT22;49512;48.744;9.176;2022-07-01T06:17:30;13.70;99.90
63383;DHT22;49512;48.744;9.176;2022-07-01T06:19:56;13.70;99.90
63383;DHT22;49512;48.744;9.176;2022-07-01T06:22:21;13.60;99.90
63383;DHT22;49512;48.744;9.176;2022-07-01T06:24:49;13.70;99.90
63383;DHT22;49512;48.744;9.176;2022-07-01T06:27:15;13.80;99.90
63383;DHT22;49512;48.744;9.176;2022-07-01T06:29:40;13.70;99.90
63383;DHT22;49512;48.744;9.176;2022-07-01T06:32:06;13.80;99.90
63383;DHT22;49512;48.744;9.176;2022-07-01T06:34:33;14.00;99.90
63383;DHT22;49512;48.744;9.176;2022-07-01T06:36:58;14.00;99.90
63383;DHT22;49512;48.744;9.176;2022-07-01T06:39:26;14.10;99.90
63383;DHT22;49512;48.744;9.176;2022-07-01T06:41:51;14.20;99.90
63383;DHT22;49512;48.744;9.176;2022-07-01T06:44:17;14.10;99.90
63383;DHT22;49512;48.744;9.176;2022-07-01T06:46:42;14.10;99.90
63383;DHT22;49512;48.744;9.176;2022-07-01T06:49:08;14.10;99.90
63383;DHT22;49512;48.744;9.176;2022-07-01T06:51:33;14.20;99.90
63383;DHT22;49512;48.744;9.176;2022-07-01T06:53:59;14.20;99.90
63383;DHT22;49512;48.744;9.176;2022-07-01T06:56:24;14.20;99.90
63383;DHT22;49512;48.744;9.176;2022-07-01T06:58:50;14.20;99.90
63383;DHT22;49512;48.744;9.176;2022-07-01T07:01:15;14.20;99.90
63383;DHT22;49512;48.744;9.176;2022-07-01T07:03:41;14.20;99.90
63383;DHT22;49512;48.744;9.176;2022-07-01T07:06:06;14.10;98.90
63383;DHT22;49512;48.744;9.176;2022-07-01T07:08:32;14.10;99.60
63383;DHT22;49512;48.744;9.176;2022-07-01T07:10:58;14.40;99.80
63383;DHT22;49512;48.744;9.176;2022-07-01T07:13:24;14.40;99.90
63383;DHT22;49512;48.744;9.176;2022-07-01T07:18:15;14.60;99.10
63383;DHT22;49512;48.744;9.176;2022-07-01T07:20:41;14.60;99.90
63383;DHT22;49512;48.744;9.176;2022-07-01T07:23:06;14.70;98.50
63383;DHT22;49512;48.744;9.176;2022-07-01T07:25:32;14.70;98.70
63383;DHT22;49512;48.744;9.176;2022-07-01T07:28:00;14.70;97.90
63383;DHT22;49512;48.744;9.176;2022-07-01T07:30:26;14.40;97.30
63383;DHT22;49512;48.744;9.176;2022-07-01T07:32:51;14.60;99.20
63383;DHT22;49512;48.744;9.176;2022-07-01T07:35:17;14.60;99.20
63383;DHT22;49512;48.744;9.176;2022-07-01T07:37:42;14.50;98.90
63383;DHT22;49512;48.744;9.176;2022-07-01T07:40:09;14.60;99.10
63383;DHT22;49512;48.744;9.176;2022-07-01T07:42:37;14.60;98.70
63383;DHT22;49512;48.744;9.176;2022-07-01T07:45:03;14.60;99.90
63383;DHT22;49512;48.744;9.176;2022-07-01T07:47:29;14.90;98.40
63383;DHT22;49512;48.744;9.176;2022-07-01T07:49:54;14.80;99.10
63383;DHT22;49512;48.744;9.176;2022-07-01T07:52:20;14.80;99.10
63383;DHT22;49512;48.744;9.176;2022-07-01T07:54:45;14.80;99.10
63383;DHT22;49512;48.744;9.176;2022-07-01T07:57:11;14.60;98.50
63383;DHT22;49512;48.744;9.176;2022-07-01T07:59:37;14.60;98.60
63383;DHT22;49512;48.744;9.176;2022-07-01T08:02:02;14.50;98.20
63383;DHT22;49512;48.744;9.176;2022-07-01T08:04:28;14.40;97.90
63383;DHT22;49512;48.744;9.176;2022-07-01T08:06:53;14.50;98.40
63383;DHT22;49512;48.744;9.176;2022-07-01T08:09:19;14.50;98.60
63383;DHT22;49512;48.744;9.176;2022-07-01T08:11:44;14.60;98.80
63383;DHT22;49512;48.744;9.176;2022-07-01T08:14:10;14.60;99.20
63383;DHT22;49512;48.744;9.176;2022-07-01T08:16:36;14.60;98.70
63383;DHT22;49512;48.744;9.176;2022-07-01T08:19:02;14.50;99.10
63383;DHT22;49512;48.744;9.176;2022-07-01T08:21:28;14.50;97.70
63383;DHT22;49512;48.744;9.176;2022-07-01T08:23:53;14.60;99.00
63383;DHT22;49512;48.744;9.176;2022-07-01T08:26:19;14.90;98.00
63383;DHT22;49512;48.744;9.176;2022-07-01T08:28:44;14.90;97.40
63383;DHT22;49512;48.744;9.176;2022-07-01T08:31:10;14.90;97.60
63383;DHT22;49512;48.744;9.176;2022-07-01T08:33:35;14.90;97.70
63383;DHT22;49512;48.744;9.176;2022-07-01T08:36:03;14.90;97.90
63383;DHT22;49512;48.744;9.176;2022-07-01T08:38:28;14.90;98.60
63383;DHT22;49512;48.744;9.176;2022-07-01T08:40:54;14.90;97.70
63383;DHT22;49512;48.744;9.176;2022-07-01T08:43:19;14.90;99.20
